sensor_id;sensor_type;location;lat;lon;timestamp;P1;durP1;ratioP1;P2;durP2;ratioP2
77164;SDS011;66140;50.280;18.660;2023-03-23T05:01:24;16.75;;;11.07;;
77164;SDS011;66140;50.280;18.660;2023-03-23T05:04:09;22.98;;;10.35;;
77164;SDS011;66140;50.280;18.660;2023-03-23T05:06:35;16.67;;;10.65;;
77164;SDS011;66140;50.280;18.660;2023-03-23T05:09:01;14.57;;;9.57;;
77164;SDS011;66140;50.280;18.660;2023-03-23T05:11:26;17.60;;;9.57;;
77164;SDS011;66140;50.280;18.660;2023-03-23T05:13:52;18.98;;;10.02;;
77164;SDS011;66140;50.280;18.660;2023-03-23T05:16:17;19.80;;;12.13;;
77164;SDS011;66140;50.280;18.660;2023-03-23T05:18:43;16.73;;;10.10;;
77164;SDS011;66140;50.280;18.660;2023-03-23T05:21:10;17.38;;;8.98;;
77164;SDS011;66140;50.280;18.660;2023-03-23T05:23:35;21.30;;;9.95;;
77164;SDS011;66140;50.280;18.660;2023-03-23T05:26:00;16.70;;;9.27;;
77164;SDS011;66140;50.280;18.660;2023-03-23T05:28:27;13.95;;;8.23;;
77164;SDS011;66140;50.280;18.660;2023-03-23T05:30:53;16.35;;;8.88;;
77164;SDS011;66140;50.280;18.660;2023-03-23T05:33:20;18.77;;;9.35;;
77164;SDS011;66140;50.280;18.660;2023-03-23T05:35:46;17.50;;;8.68;;
77164;SDS011;66140;50.280;18.660;2023-03-23T05:38:12;14.50;;;7.63;;
77164;SDS011;66140;50.280;18.660;2023-03-23T05:40:39;14.02;;;8.23;;
77164;SDS011;66140;50.280;18.660;2023-03-23T05:43:06;17.65;;;8.60;;
77164;SDS011;66140;50.280;18.660;2023-03-23T05:45:32;14.25;;;8.07;;
77164;SDS011;66140;50.280;18.660;2023-03-23T05:47:58;13.38;;;7.45;;
77164;SDS011;66140;50.280;18.660;2023-03-23T05:50:24;11.65;;;8.27;;
77164;SDS011;66140;50.280;18.660;2023-03-23T05:52:51;15.13;;;8.30;;
77164;SDS011;66140;50.280;18.660;2023-03-23T05:55:19;18.10;;;9.85;;
77164;SDS011;66140;50.280;18.660;2023-03-23T05:58:31;14.07;;;8.13;;
77164;SDS011;66140;50.280;18.660;2023-03-23T06:01:03;13.13;;;8.30;;
77164;SDS011;66140;50.280;18.660;2023-03-23T06:03:41;14.82;;;8.50;;
77164;SDS011;66140;50.280;18.660;2023-03-23T06:06:11;12.57;;;8.35;;
77164;SDS011;66140;50.280;18.660;2023-03-23T06:08:39;11.57;;;7.10;;
77164;SDS011;66140;50.280;18.660;2023-03-23T06:11:05;13.40;;;6.78;;
77164;SDS011;66140;50.280;18.660;2023-03-23T06:13:31;18.08;;;8.85;;
77164;SDS011;66140;50.280;18.660;2023-03-23T06:15:57;18.67;;;9.65;;
77164;SDS011;66140;50.280;18.660;2023-03-23T06:18:23;15.75;;;8.25;;
77164;SDS011;66140;50.280;18.660;2023-03-23T06:20:49;18.00;;;7.93;;
77164;SDS011;66140;50.280;18.660;2023-03-23T06:23:15;22.27;;;9.32;;
77164;SDS011;66140;50.280;18.660;2023-03-23T06:25:41;23.25;;;9.32;;
77164;SDS011;66140;50.280;18.660;2023-03-23T06:28:07;32.08;;;12.00;;
77164;SDS011;66140;50.280;18.660;2023-03-23T06:30:34;18.90;;;9.90;;
77164;SDS011;66140;50.280;18.660;2023-03-23T06:33:00;22.52;;;10.93;;
77164;SDS011;66140;50.280;18.660;2023-03-23T06:35:27;22.15;;;10.05;;
77164;SDS011;66140;50.280;18.660;2023-03-23T06:37:52;20.80;;;9.85;;
77164;SDS011;66140;50.280;18.660;2023-03-23T06:40:19;16.30;;;9.30;;
77164;SDS011;66140;50.280;18.660;2023-03-23T06:42:46;19.80;;;9.13;;
77164;SDS011;66140;50.280;18.660;2023-03-23T06:45:11;19.35;;;8.60;;
77164;SDS011;66140;50.280;18.660;2023-03-23T06:47:37;22.20;;;10.85;;
77164;SDS011;66140;50.280;18.660;2023-03-23T06:50:03;23.88;;;9.75;;
77164;SDS011;66140;50.280;18.660;2023-03-23T06:52:29;14.35;;;8.15;;
77164;SDS011;66140;50.280;18.660;2023-03-23T06:54:55;14.52;;;7.40;;
77164;SDS011;66140;50.280;18.660;2023-03-23T06:57:20;11.82;;;7.28;;
77164;SDS011;66140;50.280;18.660;2023-03-23T06:59:46;12.63;;;7.18;;
77164;SDS011;66140;50.280;18.660;2023-03-23T07:02:12;15.43;;;8.45;;
77164;SDS011;66140;50.280;18.660;2023-03-23T07:04:42;18.35;;;8.43;;
77164;SDS011;66140;50.280;18.660;2023-03-23T07:07:08;14.82;;;8.20;;
77164;SDS011;66140;50.280;18.660;2023-03-23T07:09:36;15.15;;;9.13;;
77164;SDS011;66140;50.280;18.660;2023-03-23T07:12:01;16.55;;;9.27;;
77164;SDS011;66140;50.280;18.660;2023-03-23T07:14:27;19.58;;;9.07;;
77164;SDS011;66140;50.280;18.660;2023-03-23T07:16:53;13.20;;;8.48;;
77164;SDS011;66140;50.280;18.660;2023-03-23T07:19:18;18.70;;;9.45;;
77164;SDS011;66140;50.280;18.660;2023-03-23T07:21:44;14.80;;;8.30;;
77164;SDS011;66140;50.280;18.660;2023-03-23T07:24:10;15.60;;;8.43;;
77164;SDS011;66140;50.280;18.660;2023-03-23T07:26:38;15.63;;;8.18;;
77164;SDS011;66140;50.280;18.660;2023-03-23T07:29:07;15.35;;;7.70;;
77164;SDS011;66140;50.280;18.660;2023-03-23T07:31:33;12.25;;;6.82;;
77164;SDS011;66140;50.280;18.660;2023-03-23T07:33:59;16.30;;;7.40;;
77164;SDS011;66140;50.280;18.660;2023-03-23T07:36:25;14.95;;;6.97;;
77164;SDS011;66140;50.280;18.660;2023-03-23T07:38:51;34.35;;;14.57;;
77164;SDS011;66140;50.280;18.660;2023-03-23T07:41:16;11.05;;;6.38;;
77164;SDS011;66140;50.280;18.660;2023-03-23T07:43:42;12.38;;;6.57;;
77164;SDS011;66140;50.280;18.660;2023-03-23T07:46:08;16.70;;;8.98;;
77164;SDS011;66140;50.280;18.660;2023-03-23T07:48:33;13.45;;;6.97;;
77164;SDS011;66140;50.280;18.660;2023-03-23T07:50:58;15.95;;;6.32;;
77164;SDS011;66140;50.280;18.660;2023-03-23T07:53:24;11.35;;;6.40;;
77164;SDS011;66140;50.280;18.660;2023-03-23T07:55:50;15.73;;;7.10;;
77164;SDS011;66140;50.280;18.660;2023-03-23T07:58:16;11.68;;;6.00;;
77164;SDS011;66140;50.280;18.660;2023-03-23T08:05:36;11.57;;;6.05;;
77164;SDS011;66140;50.280;18.660;2023-03-23T08:08:01;8.32;;;5.78;;
77164;SDS011;66140;50.280;18.660;2023-03-23T08:10:27;9.23;;;5.32;;
77164;SDS011;66140;50.280;18.660;2023-03-23T08:12:53;10.25;;;5.45;;
77164;SDS011;66140;50.280;18.660;2023-03-23T08:15:21;11.35;;;5.38;;
77164;SDS011;66140;50.280;18.660;2023-03-23T08:17:48;8.23;;;5.40;;
77164;SDS011;66140;50.280;18.660;2023-03-23T08:20:15;10.05;;;5.63;;
77164;SDS011;66140;50.280;18.660;2023-03-23T08:22:43;8.77;;;5.20;;
77164;SDS011;66140;50.280;18.660;2023-03-23T08:27:37;9.68;;;5.13;;
77164;SDS011;66140;50.280;18.660;2023-03-23T08:30:08;8.45;;;5.90;;
77164;SDS011;66140;50.280;18.660;2023-03-23T08:32:35;9.80;;;5.90;;
77164;SDS011;66140;50.280;18.660;2023-03-23T08:35:01;10.73;;;5.50;;
77164;SDS011;66140;50.280;18.660;2023-03-23T08:37:27;10.02;;;4.93;;
77164;SDS011;66140;50.280;18.660;2023-03-23T08:39:54;11.80;;;5.40;;
77164;SDS011;66140;50.280;18.660;2023-03-23T08:42:20;8.77;;;4.97;;
77164;SDS011;66140;50.280;18.660;2023-03-23T08:44:47;8.93;;;4.82;;
77164;SDS011;66140;50.280;18.660;2023-03-23T08:47:13;8.40;;;5.05;;
77164;SDS011;66140;50.280;18.660;2023-03-23T08:49:38;8.00;;;4.10;;
77164;SDS011;66140;50.280;18.660;2023-03-23T08:52:04;8.82;;;3.95;;
77164;SDS011;66140;50.280;18.660;2023-03-23T08:54:30;10.48;;;4.18;;
77164;SDS011;66140;50.280;18.660;2023-03-23T08:56:58;7.30;;;3.92;;
77164;SDS011;66140;50.280;18.660;2023-03-23T08:59:25;6.97;;;4.07;;
77164;SDS011;66140;50.280;18.660;2023-03-23T09:01:51;9.18;;;3.63;;
77164;SDS011;66140;50.280;18.660;2023-03-23T09:04:17;11.35;;;3.97;;
77164;SDS011;66140;50.280;18.660;2023-03-23T09:06:43;9.05;;;3.97;;
77164;SDS011;66140;50.280;18.660;2023-03-23T09:09:09;11.68;;;3.53;;
77164;SDS011;66140;50.280;18.660;2023-03-23T09:11:35;7.22;;;4.05;;
77164;SDS011;66140;50.280;18.660;2023-03-23T09:14:02;7.65;;;3.70;;
77164;SDS011;66140;50.280;18.660;2023-03-23T09:16:29;4.43;;;2.83;;
77164;SDS011;66140;50.280;18.660;2023-03-23T09:18:55;7.90;;;3.72;;
77164;SDS011;66140;50.280;18.660;2023-03-23T09:21:22;9.48;;;4.10;;
77164;SDS011;66140;50.280;18.660;2023-03-23T09:23:48;6.10;;;3.40;;
77164;SDS011;66140;50.280;18.660;2023-03-23T09:26:14;7.22;;;3.95;;
77164;SDS011;66140;50.280;18.660;2023-03-23T09:28:40;6.07;;;3.38;;
77164;SDS011;66140;50.280;18.660;2023-03-23T09:31:05;10.02;;;3.60;;
77164;SDS011;66140;50.280;18.660;2023-03-23T09:33:31;9.65;;;4.25;;
77164;SDS011;66140;50.280;18.660;2023-03-23T09:36:00;9.52;;;4.68;;
77164;SDS011;66140;50.280;18.660;2023-03-23T09:38:27;7.32;;;3.75;;
77164;SDS011;66140;50.280;18.660;2023-03-23T09:40:55;5.85;;;3.20;;
77164;SDS011;66140;50.280;18.660;2023-03-23T09:46:33;9.70;;;3.13;;
77164;SDS011;66140;50.280;18.660;2023-03-23T09:49:02;7.35;;;3.97;;
77164;SDS011;66140;50.280;18.660;2023-03-23T09:54:41;6.95;;;3.40;;
77164;SDS011;66140;50.280;18.660;2023-03-23T09:57:14;6.72;;;3.58;;
77164;SDS011;66140;50.280;18.660;2023-03-23T10:00:01;5.57;;;2.92;;
77164;SDS011;66140;50.280;18.660;2023-03-23T10:02:43;10.23;;;3.58;;
77164;SDS011;66140;50.280;18.660;2023-03-23T10:07:50;7.28;;;3.47;;
77164;SDS011;66140;50.280;18.660;2023-03-23T10:10:16;5.50;;;2.72;;
77164;SDS011;66140;50.280;18.660;2023-03-23T10:12:55;5.05;;;2.88;;
77164;SDS011;66140;50.280;18.660;2023-03-23T10:15:29;8.30;;;3.70;;
77164;SDS011;66140;50.280;18.660;2023-03-23T10:26:07;6.30;;;3.00;;
77164;SDS011;66140;50.280;18.660;2023-03-23T10:28:41;8.00;;;3.67;;
77164;SDS011;66140;50.280;18.660;2023-03-23T10:31:20;5.30;;;2.78;;
77164;SDS011;66140;50.280;18.660;2023-03-23T10:33:50;5.90;;;2.92;;
77164;SDS011;66140;50.280;18.660;2023-03-23T10:36:37;6.30;;;2.80;;
77164;SDS011;66140;50.280;18.660;2023-03-23T10:39:21;8.75;;;3.40;;
77164;SDS011;66140;50.280;18.660;2023-03-23T10:41:49;5.82;;;3.00;;
77164;SDS011;66140;50.280;18.660;2023-03-23T10:44:21;7.15;;;3.15;;
77164;SDS011;66140;50.280;18.660;2023-03-23T10:46:52;6.28;;;3.03;;
77164;SDS011;66140;50.280;18.660;2023-03-23T10:49:47;4.85;;;2.90;;
77164;SDS011;66140;50.280;18.660;2023-03-23T10:52:37;9.30;;;3.58;;
77164;SDS011;66140;50.280;18.660;2023-03-23T10:55:07;6.50;;;3.58;;
77164;SDS011;66140;50.280;18.660;2023-03-23T10:57:39;5.20;;;2.85;;
77164;SDS011;66140;50.280;18.660;2023-03-23T11:00:26;4.75;;;2.90;;
77164;SDS011;66140;50.280;18.660;2023-03-23T11:05:36;5.32;;;2.95;;
77164;SDS011;66140;50.280;18.660;2023-03-23T11:08:13;6.50;;;3.05;;
77164;SDS011;66140;50.280;18.660;2023-03-23T11:10:47;6.28;;;3.70;;
77164;SDS011;66140;50.280;18.660;2023-03-23T11:13:15;7.68;;;3.00;;
77164;SDS011;66140;50.280;18.660;2023-03-23T11:15:43;8.48;;;2.78;;
77164;SDS011;66140;50.280;18.660;2023-03-23T11:21:01;7.68;;;3.70;;
77164;SDS011;66140;50.280;18.660;2023-03-23T11:23:31;5.68;;;2.78;;
77164;SDS011;66140;50.280;18.660;2023-03-23T11:26:08;7.50;;;3.00;;
77164;SDS011;66140;50.280;18.660;2023-03-23T11:28:37;7.30;;;3.10;;
77164;SDS011;66140;50.280;18.660;2023-03-23T11:31:08;5.18;;;2.63;;
77164;SDS011;66140;50.280;18.660;2023-03-23T11:33:36;6.30;;;2.83;;
77164;SDS011;66140;50.280;18.660;2023-03-23T11:36:14;6.32;;;3.08;;
77164;SDS011;66140;50.280;18.660;2023-03-23T11:38:40;4.85;;;3.13;;
77164;SDS011;66140;50.280;18.660;2023-03-23T11:41:09;6.35;;;3.20;;
77164;SDS011;66140;50.280;18.660;2023-03-23T11:43:46;4.95;;;3.03;;
77164;SDS011;66140;50.280;18.660;2023-03-23T11:46:18;5.85;;;2.78;;
77164;SDS011;66140;50.280;18.660;2023-03-23T11:49:02;6.35;;;3.55;;
77164;SDS011;66140;50.280;18.660;2023-03-23T11:51:50;5.63;;;3.20;;
77164;SDS011;66140;50.280;18.660;2023-03-23T11:57:22;6.28;;;3.03;;
77164;SDS011;66140;50.280;18.660;2023-03-23T11:59:49;7.15;;;2.97;;
77164;SDS011;66140;50.280;18.660;2023-03-23T12:02:23;5.28;;;3.10;;
77164;SDS011;66140;50.280;18.660;2023-03-23T12:10:49;6.30;;;3.47;;
77164;SDS011;66140;50.280;18.660;2023-03-23T12:19:13;7.47;;;3.33;;
77164;SDS011;66140;50.280;18.660;2023-03-23T12:30:24;7.82;;;3.80;;
77164;SDS011;66140;50.280;18.660;2023-03-23T12:33:18;5.13;;;2.95;;
77164;SDS011;66140;50.280;18.660;2023-03-23T12:41:15;7.57;;;3.20;;
77164;SDS011;66140;50.280;18.660;2023-03-23T12:43:52;7.18;;;3.50;;
77164;SDS011;66140;50.280;18.660;2023-03-23T12:49:12;5.07;;;3.28;;
77164;SDS011;66140;50.280;18.660;2023-03-23T12:51:47;8.32;;;2.97;;
77164;SDS011;66140;50.280;18.660;2023-03-23T12:54:40;8.85;;;3.17;;
77164;SDS011;66140;50.280;18.660;2023-03-23T12:57:25;4.90;;;2.78;;
77164;SDS011;66140;50.280;18.660;2023-03-23T13:00:02;7.63;;;3.33;;
77164;SDS011;66140;50.280;18.660;2023-03-23T13:05:29;5.90;;;2.97;;
77164;SDS011;66140;50.280;18.660;2023-03-23T13:08:09;4.50;;;2.85;;
77164;SDS011;66140;50.280;18.660;2023-03-23T13:10:48;9.70;;;3.95;;
77164;SDS011;66140;50.280;18.660;2023-03-23T13:23:43;4.97;;;2.90;;
77164;SDS011;66140;50.280;18.660;2023-03-23T13:26:14;4.78;;;2.92;;
77164;SDS011;66140;50.280;18.660;2023-03-23T13:31:23;5.90;;;2.65;;
77164;SDS011;66140;50.280;18.660;2023-03-23T13:34:03;6.65;;;3.20;;
77164;SDS011;66140;50.280;18.660;2023-03-23T13:36:36;5.07;;;3.17;;
77164;SDS011;66140;50.280;18.660;2023-03-23T13:39:05;10.15;;;3.17;;
77164;SDS011;66140;50.280;18.660;2023-03-23T13:41:48;5.10;;;2.97;;
77164;SDS011;66140;50.280;18.660;2023-03-23T13:44:25;5.13;;;2.60;;
77164;SDS011;66140;50.280;18.660;2023-03-23T13:47:15;4.32;;;2.70;;
77164;SDS011;66140;50.280;18.660;2023-03-23T13:49:58;6.43;;;3.75;;
77164;SDS011;66140;50.280;18.660;2023-03-23T13:57:54;5.53;;;2.95;;
77164;SDS011;66140;50.280;18.660;2023-03-23T14:05:36;6.53;;;2.78;;
77164;SDS011;66140;50.280;18.660;2023-03-23T14:10:55;5.82;;;2.92;;
77164;SDS011;66140;50.280;18.660;2023-03-23T14:13:28;6.75;;;3.50;;
77164;SDS011;66140;50.280;18.660;2023-03-23T14:16:04;5.22;;;3.03;;
77164;SDS011;66140;50.280;18.660;2023-03-23T14:18:39;8.63;;;3.08;;
77164;SDS011;66140;50.280;18.660;2023-03-23T14:21:14;6.90;;;4.18;;
77164;SDS011;66140;50.280;18.660;2023-03-23T14:23:41;7.70;;;3.22;;
77164;SDS011;66140;50.280;18.660;2023-03-23T14:26:26;4.90;;;3.15;;
77164;SDS011;66140;50.280;18.660;2023-03-23T14:28:52;7.45;;;3.50;;
77164;SDS011;66140;50.280;18.660;2023-03-23T14:31:19;7.97;;;3.72;;
77164;SDS011;66140;50.280;18.660;2023-03-23T14:33:46;5.82;;;3.70;;
77164;SDS011;66140;50.280;18.660;2023-03-23T14:36:22;7.80;;;3.03;;
77164;SDS011;66140;50.280;18.660;2023-03-23T14:39:18;5.78;;;2.85;;
77164;SDS011;66140;50.280;18.660;2023-03-23T14:41:53;8.50;;;3.63;;
77164;SDS011;66140;50.280;18.660;2023-03-23T14:44:29;7.63;;;3.42;;
77164;SDS011;66140;50.280;18.660;2023-03-23T14:46:56;8.63;;;3.63;;
77164;SDS011;66140;50.280;18.660;2023-03-23T14:49:29;11.15;;;3.90;;
77164;SDS011;66140;50.280;18.660;2023-03-23T14:52:03;7.85;;;3.95;;
77164;SDS011;66140;50.280;18.660;2023-03-23T14:54:39;14.20;;;4.00;;
77164;SDS011;66140;50.280;18.660;2023-03-23T14:57:18;9.77;;;4.07;;
77164;SDS011;66140;50.280;18.660;2023-03-23T14:59:50;7.93;;;3.60;;
77164;SDS011;66140;50.280;18.660;2023-03-23T15:02:21;6.47;;;4.18;;
77164;SDS011;66140;50.280;18.660;2023-03-23T15:05:11;7.05;;;3.45;;
77164;SDS011;66140;50.280;18.660;2023-03-23T15:07:50;6.40;;;3.13;;
77164;SDS011;66140;50.280;18.660;2023-03-23T15:10:22;7.65;;;3.72;;
77164;SDS011;66140;50.280;18.660;2023-03-23T15:12:49;10.63;;;4.00;;
77164;SDS011;66140;50.280;18.660;2023-03-23T15:15:30;9.30;;;4.72;;
77164;SDS011;66140;50.280;18.660;2023-03-23T15:20:28;8.30;;;4.70;;
77164;SDS011;66140;50.280;18.660;2023-03-23T15:23:13;10.20;;;4.22;;
77164;SDS011;66140;50.280;18.660;2023-03-23T15:25:47;8.25;;;3.95;;
77164;SDS011;66140;50.280;18.660;2023-03-23T15:28:17;9.38;;;3.83;;
77164;SDS011;66140;50.280;18.660;2023-03-23T15:30:47;8.63;;;4.18;;
77164;SDS011;66140;50.280;18.660;2023-03-23T15:33:16;7.03;;;4.00;;
77164;SDS011;66140;50.280;18.660;2023-03-23T15:35:48;7.40;;;4.18;;
77164;SDS011;66140;50.280;18.660;2023-03-23T15:38:19;10.43;;;4.78;;
77164;SDS011;66140;50.280;18.660;2023-03-23T15:40:51;9.25;;;4.35;;
77164;SDS011;66140;50.280;18.660;2023-03-23T15:43:19;13.32;;;4.55;;
77164;SDS011;66140;50.280;18.660;2023-03-23T15:48:49;10.02;;;5.30;;
77164;SDS011;66140;50.280;18.660;2023-03-23T15:51:17;8.68;;;5.38;;
77164;SDS011;66140;50.280;18.660;2023-03-23T15:53:44;11.70;;;6.90;;
77164;SDS011;66140;50.280;18.660;2023-03-23T15:56:11;15.73;;;6.88;;
77164;SDS011;66140;50.280;18.660;2023-03-23T15:58:38;14.32;;;6.80;;
77164;SDS011;66140;50.280;18.660;2023-03-23T16:01:06;12.75;;;7.18;;
77164;SDS011;66140;50.280;18.660;2023-03-23T16:03:55;16.20;;;6.70;;
77164;SDS011;66140;50.280;18.660;2023-03-23T16:06:26;13.32;;;6.63;;
77164;SDS011;66140;50.280;18.660;2023-03-23T16:08:54;15.98;;;6.85;;
77164;SDS011;66140;50.280;18.660;2023-03-23T16:11:20;11.20;;;6.65;;
77164;SDS011;66140;50.280;18.660;2023-03-23T16:13:47;11.02;;;5.90;;
77164;SDS011;66140;50.280;18.660;2023-03-23T16:16:13;11.52;;;5.55;;
77164;SDS011;66140;50.280;18.660;2023-03-23T16:18:42;10.57;;;5.40;;
77164;SDS011;66140;50.280;18.660;2023-03-23T16:21:09;7.00;;;4.22;;
77164;SDS011;66140;50.280;18.660;2023-03-23T16:23:34;10.13;;;5.85;;
77164;SDS011;66140;50.280;18.660;2023-03-23T16:26:00;7.68;;;4.38;;
77164;SDS011;66140;50.280;18.660;2023-03-23T16:28:26;6.57;;;3.95;;
77164;SDS011;66140;50.280;18.660;2023-03-23T16:30:54;7.32;;;4.38;;
77164;SDS011;66140;50.280;18.660;2023-03-23T16:35:44;7.07;;;4.00;;
77164;SDS011;66140;50.280;18.660;2023-03-23T16:38:13;6.60;;;3.42;;
77164;SDS011;66140;50.280;18.660;2023-03-23T16:40:43;9.02;;;5.07;;
77164;SDS011;66140;50.280;18.660;2023-03-23T16:43:11;7.93;;;4.10;;
77164;SDS011;66140;50.280;18.660;2023-03-23T16:45:39;6.82;;;4.28;;
77164;SDS011;66140;50.280;18.660;2023-03-23T16:48:06;7.07;;;3.78;;
77164;SDS011;66140;50.280;18.660;2023-03-23T16:50:32;16.60;;;9.25;;
77164;SDS011;66140;50.280;18.660;2023-03-23T16:52:58;13.05;;;6.00;;
77164;SDS011;66140;50.280;18.660;2023-03-23T16:55:24;8.57;;;4.60;;
77164;SDS011;66140;50.280;18.660;2023-03-23T16:57:51;11.07;;;6.18;;
77164;SDS011;66140;50.280;18.660;2023-03-23T17:00:17;7.60;;;4.88;;
77164;SDS011;66140;50.280;18.660;2023-03-23T17:02:48;6.95;;;4.47;;
77164;SDS011;66140;50.280;18.660;2023-03-23T17:05:16;8.68;;;4.85;;
77164;SDS011;66140;50.280;18.660;2023-03-23T17:07:56;8.63;;;5.10;;
77164;SDS011;66140;50.280;18.660;2023-03-23T17:10:24;10.82;;;5.30;;
77164;SDS011;66140;50.280;18.660;2023-03-23T17:12:54;12.85;;;7.63;;
77164;SDS011;66140;50.280;18.660;2023-03-23T17:15:20;13.25;;;8.18;;
77164;SDS011;66140;50.280;18.660;2023-03-23T17:17:48;13.32;;;8.15;;
77164;SDS011;66140;50.280;18.660;2023-03-23T17:20:14;14.02;;;7.57;;
77164;SDS011;66140;50.280;18.660;2023-03-23T17:22:42;13.63;;;7.18;;
77164;SDS011;66140;50.280;18.660;2023-03-23T17:25:08;11.93;;;6.78;;
77164;SDS011;66140;50.280;18.660;2023-03-23T17:27:34;21.52;;;10.95;;
77164;SDS011;66140;50.280;18.660;2023-03-23T17:30:03;46.85;;;24.35;;
77164;SDS011;66140;50.280;18.660;2023-03-23T17:32:30;28.20;;;16.45;;
77164;SDS011;66140;50.280;18.660;2023-03-23T17:34:56;23.52;;;13.40;;
77164;SDS011;66140;50.280;18.660;2023-03-23T17:37:26;21.08;;;10.50;;
77164;SDS011;66140;50.280;18.660;2023-03-23T17:39:52;19.98;;;11.27;;
77164;SDS011;66140;50.280;18.660;2023-03-23T17:42:18;16.08;;;9.23;;
77164;SDS011;66140;50.280;18.660;2023-03-23T17:44:44;14.18;;;8.80;;
77164;SDS011;66140;50.280;18.660;2023-03-23T17:47:10;14.90;;;8.35;;
77164;SDS011;66140;50.280;18.660;2023-03-23T17:49:36;14.80;;;7.75;;
77164;SDS011;66140;50.280;18.660;2023-03-23T17:52:02;13.85;;;8.27;;
77164;SDS011;66140;50.280;18.660;2023-03-23T17:54:30;14.88;;;9.38;;
77164;SDS011;66140;50.280;18.660;2023-03-23T17:59:23;19.25;;;10.52;;
77164;SDS011;66140;50.280;18.660;2023-03-23T18:01:50;20.80;;;10.07;;
77164;SDS011;66140;50.280;18.660;2023-03-23T18:04:16;17.13;;;9.60;;
77164;SDS011;66140;50.280;18.660;2023-03-23T18:06:42;17.58;;;9.32;;
77164;SDS011;66140;50.280;18.660;2023-03-23T18:09:08;32.80;;;17.50;;
77164;SDS011;66140;50.280;18.660;2023-03-23T18:11:33;43.08;;;24.23;;
77164;SDS011;66140;50.280;18.660;2023-03-23T18:16:27;54.53;;;27.42;;
77164;SDS011;66140;50.280;18.660;2023-03-23T18:18:52;48.13;;;27.48;;
77164;SDS011;66140;50.280;18.660;2023-03-23T18:21:18;35.83;;;21.85;;
77164;SDS011;66140;50.280;18.660;2023-03-23T18:23:43;40.10;;;21.90;;
77164;SDS011;66140;50.280;18.660;2023-03-23T18:26:11;38.00;;;24.85;;
77164;SDS011;66140;50.280;18.660;2023-03-23T18:28:37;33.80;;;18.90;;
77164;SDS011;66140;50.280;18.660;2023-03-23T18:31:10;23.13;;;12.77;;
77164;SDS011;66140;50.280;18.660;2023-03-23T18:33:40;21.80;;;12.07;;
77164;SDS011;66140;50.280;18.660;2023-03-23T18:36:08;21.40;;;11.90;;
77164;SDS011;66140;50.280;18.660;2023-03-23T18:38:34;14.57;;;9.63;;
77164;SDS011;66140;50.280;18.660;2023-03-23T18:41:00;16.92;;;9.13;;
77164;SDS011;66140;50.280;18.660;2023-03-23T18:43:30;17.88;;;9.18;;
77164;SDS011;66140;50.280;18.660;2023-03-23T18:45:56;18.33;;;8.93;;
77164;SDS011;66140;50.280;18.660;2023-03-23T18:48:24;17.40;;;10.05;;
77164;SDS011;66140;50.280;18.660;2023-03-23T18:50:51;16.60;;;9.07;;
77164;SDS011;66140;50.280;18.660;2023-03-23T18:55:44;17.95;;;9.82;;
77164;SDS011;66140;50.280;18.660;2023-03-23T18:58:10;14.93;;;8.15;;
77164;SDS011;66140;50.280;18.660;2023-03-23T19:00:38;16.75;;;8.60;;
77164;SDS011;66140;50.280;18.660;2023-03-23T19:03:04;30.15;;;12.23;;
77164;SDS011;66140;50.280;18.660;2023-03-23T19:05:31;26.60;;;11.95;;
77164;SDS011;66140;50.280;18.660;2023-03-23T19:07:58;27.23;;;11.63;;
77164;SDS011;66140;50.280;18.660;2023-03-23T19:10:24;29.10;;;13.80;;
77164;SDS011;66140;50.280;18.660;2023-03-23T19:12:50;32.25;;;15.80;;
77164;SDS011;66140;50.280;18.660;2023-03-23T19:15:16;35.00;;;14.52;;
77164;SDS011;66140;50.280;18.660;2023-03-23T19:17:42;23.52;;;11.43;;
77164;SDS011;66140;50.280;18.660;2023-03-23T19:20:09;18.00;;;9.40;;
77164;SDS011;66140;50.280;18.660;2023-03-23T19:22:35;18.88;;;8.88;;
77164;SDS011;66140;50.280;18.660;2023-03-23T19:25:08;17.08;;;8.77;;
77164;SDS011;66140;50.280;18.660;2023-03-23T19:27:34;18.58;;;9.15;;
77164;SDS011;66140;50.280;18.660;2023-03-23T19:30:00;16.58;;;8.48;;
77164;SDS011;66140;50.280;18.660;2023-03-23T19:32:29;25.42;;;11.63;;
77164;SDS011;66140;50.280;18.660;2023-03-23T19:35:02;19.92;;;10.27;;
77164;SDS011;66140;50.280;18.660;2023-03-23T19:37:28;14.40;;;9.43;;
77164;SDS011;66140;50.280;18.660;2023-03-23T19:39:58;21.40;;;10.88;;
77164;SDS011;66140;50.280;18.660;2023-03-23T19:42:23;20.38;;;10.82;;
77164;SDS011;66140;50.280;18.660;2023-03-23T19:44:49;16.95;;;9.10;;
77164;SDS011;66140;50.280;18.660;2023-03-23T19:47:15;17.45;;;9.35;;
77164;SDS011;66140;50.280;18.660;2023-03-23T19:49:41;23.52;;;10.95;;
77164;SDS011;66140;50.280;18.660;2023-03-23T19:52:07;21.73;;;10.07;;
77164;SDS011;66140;50.280;18.660;2023-03-23T19:54:33;20.80;;;10.15;;
77164;SDS011;66140;50.280;18.660;2023-03-23T19:57:00;21.05;;;10.68;;
77164;SDS011;66140;50.280;18.660;2023-03-23T19:59:26;23.27;;;11.20;;
77164;SDS011;66140;50.280;18.660;2023-03-23T20:01:52;16.67;;;9.57;;
77164;SDS011;66140;50.280;18.660;2023-03-23T20:04:19;21.38;;;10.13;;
77164;SDS011;66140;50.280;18.660;2023-03-23T20:06:45;17.23;;;10.15;;
77164;SDS011;66140;50.280;18.660;2023-03-23T20:09:11;16.17;;;8.63;;
77164;SDS011;66140;50.280;18.660;2023-03-23T20:11:37;16.23;;;7.60;;
77164;SDS011;66140;50.280;18.660;2023-03-23T20:14:04;17.58;;;9.68;;
77164;SDS011;66140;50.280;18.660;2023-03-23T20:16:31;11.68;;;6.85;;
77164;SDS011;66140;50.280;18.660;2023-03-23T20:18:57;14.85;;;6.82;;
77164;SDS011;66140;50.280;18.660;2023-03-23T20:21:22;12.43;;;7.10;;
77164;SDS011;66140;50.280;18.660;2023-03-23T20:23:52;10.10;;;5.90;;
77164;SDS011;66140;50.280;18.660;2023-03-23T20:26:23;10.68;;;5.55;;
77164;SDS011;66140;50.280;18.660;2023-03-23T20:28:51;10.68;;;5.30;;
77164;SDS011;66140;50.280;18.660;2023-03-23T20:31:18;9.80;;;4.65;;
77164;SDS011;66140;50.280;18.660;2023-03-23T20:33:45;10.02;;;4.53;;
77164;SDS011;66140;50.280;18.660;2023-03-23T20:36:12;8.32;;;4.65;;
77164;SDS011;66140;50.280;18.660;2023-03-23T20:38:38;12.98;;;6.53;;
77164;SDS011;66140;50.280;18.660;2023-03-23T20:41:07;10.70;;;5.20;;
77164;SDS011;66140;50.280;18.660;2023-03-23T20:43:40;9.15;;;4.65;;
77164;SDS011;66140;50.280;18.660;2023-03-23T20:46:07;6.68;;;4.28;;
77164;SDS011;66140;50.280;18.660;2023-03-23T20:48:34;10.55;;;4.50;;
77164;SDS011;66140;50.280;18.660;2023-03-23T20:51:02;8.18;;;4.30;;
77164;SDS011;66140;50.280;18.660;2023-03-23T20:53:30;6.45;;;4.25;;
77164;SDS011;66140;50.280;18.660;2023-03-23T20:55:58;10.95;;;5.40;;
77164;SDS011;66140;50.280;18.660;2023-03-23T20:58:26;9.00;;;4.20;;
77164;SDS011;66140;50.280;18.660;2023-03-23T21:00:53;8.35;;;4.30;;
77164;SDS011;66140;50.280;18.660;2023-03-23T21:03:27;9.85;;;4.88;;
77164;SDS011;66140;50.280;18.660;2023-03-23T21:05:55;14.38;;;5.22;;
77164;SDS011;66140;50.280;18.660;2023-03-23T21:08:21;10.27;;;4.45;;
77164;SDS011;66140;50.280;18.660;2023-03-23T21:10:46;7.50;;;4.00;;
77164;SDS011;66140;50.280;18.660;2023-03-23T21:13:13;8.60;;;4.22;;
77164;SDS011;66140;50.280;18.660;2023-03-23T21:15:40;8.65;;;4.70;;
77164;SDS011;66140;50.280;18.660;2023-03-23T21:18:06;8.27;;;4.25;;
77164;SDS011;66140;50.280;18.660;2023-03-23T21:20:32;9.38;;;4.50;;
77164;SDS011;66140;50.280;18.660;2023-03-23T21:22:59;10.27;;;4.72;;
77164;SDS011;66140;50.280;18.660;2023-03-23T21:25:30;9.57;;;5.18;;